Time;durP1;ratioP1;P1;durP2;ratioP2;P2;SDS_P1;SDS_P2;PMS_P1;PMS_P2;Temp;Humidity;BMP_temperature;BMP_pressure;BME280_temperature;BME280_humidity;BME280_pressure;Samples;Min_cycle;Max_cycle;Signal;HPM_P1;HPM_P2
2023/07/25 00:03:38;;;;;;;;;;;14.70;99.90;;;;;;12509356;28;19936;-43
2023/07/25 00:09:40;;;;;;;;;;;14.80;99.90;;;;;;12491630;28;19936;-42
2023/07/25 00:15:43;;;;;;;;;;;14.80;99.90;;;;;;12519077;28;19981;-42
2023/07/25 00:21:47;;;;;;;;;;;14.70;99.90;;;;;;12514752;28;19925;-42
2023/07/25 00:27:49;;;;;;;;;;;14.70;99.90;;;;;;12506850;28;20551;-42
2023/07/25 00:33:51;;;;;;;;;;;14.70;99.90;;;;;;12496935;28;19925;-42
2023/07/25 00:39:54;;;;;;;;;;;14.80;99.90;;;;;;12511371;28;19924;-42
2023/07/25 00:45:56;;;;;;;;;;;14.60;99.90;;;;;;12529812;28;19920;-42
2023/07/25 00:51:59;;;;;;;;;;;14.60;99.90;;;;;;12515470;28;19924;-42
2023/07/25 00:58:02;;;;;;;;;;;14.60;99.90;;;;;;12504095;28;20284;-42
2023/07/25 01:04:04;;;;;;;;;;;14.50;99.90;;;;;;12508173;28;20047;-42
2023/07/25 01:10:07;;;;;;;;;;;14.50;99.90;;;;;;12530583;28;20292;-43
2023/07/25 01:16:10;;;;;;;;;;;14.50;99.90;;;;;;12506554;28;20148;-42
2023/07/25 01:22:14;;;;;;;;;;;14.40;99.90;;;;;;12520492;28;19925;-42
2023/07/25 01:28:16;;;;;;;;;;;14.30;99.90;;;;;;12533817;28;19927;-43
2023/07/25 01:34:21;;;;;;;;;;;14.30;99.90;;;;;;12509762;28;19928;-43
2023/07/25 01:40:27;;;;;;;;;;;14.20;99.90;;;;;;12525876;28;19952;-43
2023/07/25 01:46:30;;;;;;;;;;;14.20;99.90;;;;;;12535095;28;19967;-43
2023/07/25 01:52:32;;;;;;;;;;;14.10;99.90;;;;;;12540421;28;19970;-42
2023/07/25 01:58:37;;;;;;;;;;;14.20;99.90;;;;;;12534008;28;19932;-42
2023/07/25 02:04:40;;;;;;;;;;;14.10;99.90;;;;;;12515178;28;19921;-43
2023/07/25 02:10:42;;;;;;;;;;;14.00;99.90;;;;;;12519794;28;19921;-43
2023/07/25 02:16:44;;;;;;;;;;;13.90;99.90;;;;;;12528507;28;19925;-42
2023/07/25 02:22:48;;;;;;;;;;;14.00;99.90;;;;;;12528100;28;19921;-43
2023/07/25 02:28:50;;;;;;;;;;;14.00;99.90;;;;;;12511408;28;19928;-42
2023/07/25 02:34:53;;;;;;;;;;;14.00;99.90;;;;;;12533746;28;19921;-42
2023/07/25 02:40:56;;;;;;;;;;;13.90;99.90;;;;;;12524960;28;19932;-42
2023/07/25 02:46:58;;;;;;;;;;;13.80;99.90;;;;;;12529494;28;19982;-42
2023/07/25 02:53:01;;;;;;;;;;;13.80;99.90;;;;;;12522088;28;19925;-42
2023/07/25 02:59:04;;;;;;;;;;;14.20;99.90;;;;;;12509506;28;20426;-42
2023/07/25 03:05:08;;;;;;;;;;;14.20;99.90;;;;;;12534506;28;19924;-42
2023/07/25 03:11:11;;;;;;;;;;;14.10;99.90;;;;;;12519005;28;19924;-42
2023/07/25 03:17:15;;;;;;;;;;;14.30;99.90;;;;;;12533657;28;20262;-42
2023/07/25 03:23:18;;;;;;;;;;;14.10;99.90;;;;;;12508923;28;19943;-42
2023/07/25 03:29:23;;;;;;;;;;;14.30;99.90;;;;;;12510530;28;19924;-42
2023/07/25 03:35:25;;;;;;;;;;;14.20;99.90;;;;;;12519245;28;19924;-42
2023/07/25 03:41:29;;;;;;;;;;;14.30;99.90;;;;;;12507259;28;19944;-42
2023/07/25 03:47:33;;;;;;;;;;;14.20;99.90;;;;;;12514649;28;19929;-42
2023/07/25 03:53:35;;;;;;;;;;;14.10;99.90;;;;;;12517340;28;19921;-42
2023/07/25 03:59:38;;;;;;;;;;;13.90;99.90;;;;;;12523223;28;20066;-43
2023/07/25 04:05:42;;;;;;;;;;;14.10;99.90;;;;;;12519742;28;19929;-43
2023/07/25 04:11:45;;;;;;;;;;;14.30;99.90;;;;;;12496854;28;20346;-42
2023/07/25 04:17:49;;;;;;;;;;;14.60;99.90;;;;;;12512578;28;20039;-42
2023/07/25 04:23:52;;;;;;;;;;;15.40;99.90;;;;;;12519898;28;20989;-42
2023/07/25 04:29:55;;;;;;;;;;;16.40;99.90;;;;;;12498968;28;19921;-43
2023/07/25 04:35:59;;;;;;;;;;;17.10;99.90;;;;;;12499159;28;19921;-42
2023/07/25 04:42:02;;;;;;;;;;;17.20;99.90;;;;;;12511839;28;19932;-43
2023/07/25 04:48:05;;;;;;;;;;;17.30;99.90;;;;;;12503352;28;19928;-42
2023/07/25 04:54:07;;;;;;;;;;;16.50;99.90;;;;;;12497219;28;20015;-43
2023/07/25 05:00:10;;;;;;;;;;;15.60;99.90;;;;;;12495680;28;19972;-42
2023/07/25 05:06:13;;;;;;;;;;;15.80;99.90;;;;;;12512459;28;20384;-43
2023/07/25 05:12:15;;;;;;;;;;;15.60;99.90;;;;;;12505860;28;19936;-42
2023/07/25 05:18:18;;;;;;;;;;;15.40;99.90;;;;;;12518176;28;19932;-42
2023/07/25 05:24:21;;;;;;;;;;;14.50;99.90;;;;;;12508397;28;20351;-42
2023/07/25 05:30:23;;;;;;;;;;;14.40;99.90;;;;;;12520561;28;19920;-43
2023/07/25 05:36:26;;;;;;;;;;;14.10;99.90;;;;;;12510642;28;19921;-42
2023/07/25 05:42:29;;;;;;;;;;;14.40;99.90;;;;;;12499225;28;19932;-42
2023/07/25 05:48:32;;;;;;;;;;;14.60;99.90;;;;;;12507140;28;19925;-42
2023/07/25 05:54:34;;;;;;;;;;;14.30;99.90;;;;;;12500403;28;20293;-43
2023/07/25 06:00:38;;;;;;;;;;;14.20;99.90;;;;;;12516436;28;19971;-43
2023/07/25 06:06:41;;;;;;;;;;;14.40;99.90;;;;;;12526151;28;19925;-43
2023/07/25 06:12:44;;;;;;;;;;;14.60;99.90;;;;;;12513517;28;20388;-42
2023/07/25 06:18:46;;;;;;;;;;;14.60;99.90;;;;;;12527930;28;19925;-43
2023/07/25 06:24:49;;;;;;;;;;;14.80;99.90;;;;;;12509078;28;20434;-43
2023/07/25 06:30:51;;;;;;;;;;;14.90;99.90;;;;;;12513007;28;20426;-43
2023/07/25 06:36:55;;;;;;;;;;;14.80;99.90;;;;;;12517613;28;19928;-42
2023/07/25 06:43:00;;;;;;;;;;;14.70;99.90;;;;;;12503453;28;19921;-43
2023/07/25 06:49:02;;;;;;;;;;;15.30;99.90;;;;;;12524786;28;19932;-43
2023/07/25 06:55:06;;;;;;;;;;;15.30;99.90;;;;;;12502908;28;19921;-43
2023/07/25 07:01:08;;;;;;;;;;;15.20;99.90;;;;;;12510686;28;19928;-43
2023/07/25 07:07:11;;;;;;;;;;;15.50;99.90;;;;;;12517252;28;19964;-42
2023/07/25 07:13:14;;;;;;;;;;;15.30;99.90;;;;;;12513782;28;19975;-42
2023/07/25 07:19:17;;;;;;;;;;;15.50;99.90;;;;;;12505552;28;19979;-42
2023/07/25 07:25:20;;;;;;;;;;;15.90;99.90;;;;;;12521395;28;20433;-43
2023/07/25 07:31:24;;;;;;;;;;;15.30;99.90;;;;;;12497367;28;20296;-42
2023/07/25 07:37:26;;;;;;;;;;;15.90;99.90;;;;;;12490040;28;19959;-42
2023/07/25 07:43:29;;;;;;;;;;;15.80;99.90;;;;;;12515356;28;19925;-42
2023/07/25 07:49:36;;;;;;;;;;;15.80;99.90;;;;;;12524156;28;19931;-42
2023/07/25 07:55:38;;;;;;;;;;;15.60;99.90;;;;;;12510869;28;19924;-41
2023/07/25 08:01:42;;;;;;;;;;;15.90;99.90;;;;;;12505278;28;19925;-43
2023/07/25 08:07:44;;;;;;;;;;;16.00;99.90;;;;;;12522356;28;19925;-43
2023/07/25 08:13:46;;;;;;;;;;;16.30;99.90;;;;;;12503024;28;19978;-43
2023/07/25 08:19:49;;;;;;;;;;;16.60;99.90;;;;;;12504716;28;20640;-43
2023/07/25 08:25:53;;;;;;;;;;;15.90;99.90;;;;;;12506526;28;19966;-42
2023/07/25 08:31:56;;;;;;;;;;;16.20;99.90;;;;;;12527753;28;20240;-42
2023/07/25 08:37:59;;;;;;;;;;;16.40;99.90;;;;;;12520887;28;20443;-43
2023/07/25 08:44:02;;;;;;;;;;;16.70;99.90;;;;;;12511195;28;19971;-42
2023/07/25 08:50:08;;;;;;;;;;;16.40;99.90;;;;;;12506952;28;20095;-42
2023/07/25 08:56:11;;;;;;;;;;;16.30;99.90;;;;;;12477440;28;20325;-43
2023/07/25 09:02:17;;;;;;;;;;;16.10;99.90;;;;;;12506107;28;19960;-44
2023/07/25 09:08:19;;;;;;;;;;;16.70;99.90;;;;;;12518383;28;20423;-44
2023/07/25 09:14:23;;;;;;;;;;;16.90;99.90;;;;;;12515901;28;19924;-43
2023/07/25 09:20:26;;;;;;;;;;;17.30;99.90;;;;;;12515852;28;19927;-44
2023/07/25 09:26:30;;;;;;;;;;;17.00;99.90;;;;;;12519806;28;19921;-44
2023/07/25 09:32:33;;;;;;;;;;;16.50;99.90;;;;;;12534947;28;19931;-43
2023/07/25 09:38:36;;;;;;;;;;;16.10;99.90;;;;;;12523819;28;20356;-42
2023/07/25 09:44:49;;;;;;;;;;;16.00;99.90;;;;;;12520041;28;20266;-43
2023/07/25 09:50:52;;;;;;;;;;;15.90;99.90;;;;;;12529777;28;19920;-42
2023/07/25 09:56:55;;;;;;;;;;;16.20;99.90;;;;;;12505024;28;19920;-42
2023/07/25 10:02:58;;;;;;;;;;;16.70;99.90;;;;;;12529591;28;19925;-42
2023/07/25 10:09:03;;;;;;;;;;;16.90;99.90;;;;;;12522938;28;19921;-42
2023/07/25 10:15:11;;;;;;;;;;;16.70;99.90;;;;;;12523327;28;19921;-43
2023/07/25 10:21:17;;;;;;;;;;;16.30;99.90;;;;;;12522921;28;19932;-43
2023/07/25 10:27:20;;;;;;;;;;;16.40;99.90;;;;;;12522965;28;20245;-42
2023/07/25 10:33:23;;;;;;;;;;;16.30;99.90;;;;;;12512698;28;19925;-43
2023/07/25 10:39:26;;;;;;;;;;;16.70;99.90;;;;;;12506014;28;19960;-42
2023/07/25 10:45:28;;;;;;;;;;;16.70;99.90;;;;;;12514663;28;20323;-43
2023/07/25 10:51:50;;;;;;;;;;;16.90;99.90;;;;;;12508739;28;19921;-43
2023/07/25 10:58:08;;;;;;;;;;;16.90;99.90;;;;;;12522003;28;20365;-43
2023/07/25 11:04:27;;;;;;;;;;;16.90;99.90;;;;;;12514695;28;19925;-43
2023/07/25 11:10:29;;;;;;;;;;;17.20;99.90;;;;;;12505202;28;19967;-42
2023/07/25 11:16:32;;;;;;;;;;;17.20;99.90;;;;;;12523182;28;20332;-43
2023/07/25 11:22:35;;;;;;;;;;;17.30;99.90;;;;;;12528792;28;19928;-43
2023/07/25 11:28:38;;;;;;;;;;;17.40;99.90;;;;;;12508568;28;20023;-43
2023/07/25 11:34:47;;;;;;;;;;;17.70;99.90;;;;;;12505171;28;19924;-43
2023/07/25 11:40:53;;;;;;;;;;;17.70;99.90;;;;;;12518159;28;20458;-43
2023/07/25 11:46:55;;;;;;;;;;;17.50;99.90;;;;;;12513094;28;19967;-43
2023/07/25 11:52:59;;;;;;;;;;;17.70;99.90;;;;;;12514931;28;19921;-43
2023/07/25 11:59:02;;;;;;;;;;;17.90;99.90;;;;;;12526523;28;19920;-43
2023/07/25 12:05:06;;;;;;;;;;;18.00;99.90;;;;;;12521403;28;20012;-43
2023/07/25 12:11:13;;;;;;;;;;;18.30;99.90;;;;;;12508829;28;19920;-43
2023/07/25 12:17:18;;;;;;;;;;;18.70;99.90;;;;;;12505434;28;20805;-42
2023/07/25 12:23:28;;;;;;;;;;;19.00;99.90;;;;;;12509229;28;19968;-43
2023/07/25 12:29:32;;;;;;;;;;;19.00;99.90;;;;;;12506538;28;20262;-43
2023/07/25 12:35:35;;;;;;;;;;;18.40;99.90;;;;;;12512482;28;19944;-43
2023/07/25 12:41:37;;;;;;;;;;;18.00;99.90;;;;;;12500205;28;19943;-43
2023/07/25 12:47:40;;;;;;;;;;;17.90;99.90;;;;;;12511428;28;20054;-43
2023/07/25 12:53:43;;;;;;;;;;;17.70;99.90;;;;;;12519627;28;19968;-43
2023/07/25 12:59:47;;;;;;;;;;;17.30;99.90;;;;;;12513274;28;20528;-43
2023/07/25 13:05:50;;;;;;;;;;;16.90;99.90;;;;;;12528096;28;20384;-43
2023/07/25 13:11:53;;;;;;;;;;;17.10;99.90;;;;;;12520726;28;19973;-43
2023/07/25 13:17:56;;;;;;;;;;;17.60;99.90;;;;;;12516109;28;19995;-43
2023/07/25 13:23:59;;;;;;;;;;;18.10;99.90;;;;;;12511351;28;19921;-43
2023/07/25 13:30:03;;;;;;;;;;;18.40;99.90;;;;;;12509797;28;20343;-43
2023/07/25 13:36:06;;;;;;;;;;;18.50;99.90;;;;;;12506599;28;20297;-43
2023/07/25 13:42:09;;;;;;;;;;;18.20;99.90;;;;;;12515253;28;19921;-43
2023/07/25 13:48:11;;;;;;;;;;;18.60;99.90;;;;;;12508278;28;19946;-43
2023/07/25 13:54:14;;;;;;;;;;;18.10;99.90;;;;;;12503549;28;19932;-45
2023/07/25 14:00:18;;;;;;;;;;;17.90;99.90;;;;;;12502707;28;20373;-43
2023/07/25 14:06:21;;;;;;;;;;;18.00;99.90;;;;;;12525194;28;19925;-44
2023/07/25 14:12:24;;;;;;;;;;;18.70;99.90;;;;;;12509829;28;19929;-44
2023/07/25 14:18:27;;;;;;;;;;;19.30;99.90;;;;;;12523485;28;20019;-42
2023/07/25 14:24:30;;;;;;;;;;;18.90;99.90;;;;;;12511756;28;19967;-43
2023/07/25 14:30:33;;;;;;;;;;;18.50;99.90;;;;;;12516352;28;20016;-43
2023/07/25 14:36:36;;;;;;;;;;;18.30;99.90;;;;;;12521805;28;19967;-43
2023/07/25 14:42:39;;;;;;;;;;;18.20;99.90;;;;;;12524824;28;19928;-43
2023/07/25 14:48:41;;;;;;;;;;;18.50;99.90;;;;;;12525305;28;20365;-43
2023/07/25 14:54:44;;;;;;;;;;;19.30;99.90;;;;;;12499207;28;19929;-42
2023/07/25 15:00:48;;;;;;;;;;;19.30;99.90;;;;;;12509094;28;20408;-43
2023/07/25 15:06:51;;;;;;;;;;;18.90;99.90;;;;;;12531034;28;19921;-43
2023/07/25 15:12:54;;;;;;;;;;;19.20;99.90;;;;;;12517229;28;19925;-43
2023/07/25 15:18:58;;;;;;;;;;;19.80;99.90;;;;;;12509367;28;20346;-43
2023/07/25 15:25:00;;;;;;;;;;;20.00;99.90;;;;;;12499094;28;19979;-43
2023/07/25 15:31:03;;;;;;;;;;;20.20;99.90;;;;;;12493138;28;19928;-43
2023/07/25 15:37:06;;;;;;;;;;;19.90;99.90;;;;;;12509979;28;20392;-43
2023/07/25 15:43:11;;;;;;;;;;;20.00;99.90;;;;;;12514006;28;19925;-43
2023/07/25 15:49:14;;;;;;;;;;;20.10;99.90;;;;;;12503416;28;20348;-43
2023/07/25 15:55:17;;;;;;;;;;;20.20;99.90;;;;;;12496575;28;19921;-43
2023/07/25 16:01:20;;;;;;;;;;;20.20;99.90;;;;;;12513026;28;20443;-43
2023/07/25 16:07:22;;;;;;;;;;;19.80;99.90;;;;;;12530245;28;20341;-43
2023/07/25 16:13:24;;;;;;;;;;;19.50;99.90;;;;;;12493769;28;19925;-43
2023/07/25 16:19:29;;;;;;;;;;;19.20;99.90;;;;;;12513261;28;19937;-43
2023/07/25 16:25:32;;;;;;;;;;;19.30;99.90;;;;;;12517456;28;20395;-43
2023/07/25 16:31:36;;;;;;;;;;;19.70;99.90;;;;;;12499803;28;20337;-43
2023/07/25 16:37:40;;;;;;;;;;;19.90;99.90;;;;;;12500474;28;20369;-43
2023/07/25 16:43:43;;;;;;;;;;;19.60;99.90;;;;;;12509041;28;19921;-43
2023/07/25 16:49:46;;;;;;;;;;;18.90;99.90;;;;;;12502036;28;19924;-43
2023/07/25 16:55:49;;;;;;;;;;;19.20;99.90;;;;;;12508640;28;19924;-43
2023/07/25 17:01:52;;;;;;;;;;;19.50;99.90;;;;;;12528648;28;19974;-43
2023/07/25 17:07:56;;;;;;;;;;;19.50;99.90;;;;;;12527091;28;19932;-43
2023/07/25 17:13:58;;;;;;;;;;;19.80;99.90;;;;;;12500003;28;19921;-43
2023/07/25 17:20:00;;;;;;;;;;;19.50;99.90;;;;;;12508786;28;19921;-43
2023/07/25 17:26:04;;;;;;;;;;;18.80;99.90;;;;;;12511588;28;19920;-43
2023/07/25 17:32:08;;;;;;;;;;;18.40;99.90;;;;;;12505296;28;19921;-43
2023/07/25 17:38:13;;;;;;;;;;;18.10;99.90;;;;;;12509096;28;19925;-44
2023/07/25 17:44:17;;;;;;;;;;;18.30;99.90;;;;;;12500813;28;19929;-44
2023/07/25 17:50:20;;;;;;;;;;;18.40;99.90;;;;;;12525790;28;19928;-44
2023/07/25 17:56:22;;;;;;;;;;;19.00;99.90;;;;;;12519761;28;19971;-46
2023/07/25 18:02:25;;;;;;;;;;;19.00;99.90;;;;;;12529916;28;20035;-46
2023/07/25 18:08:28;;;;;;;;;;;18.50;99.90;;;;;;12523306;28;19920;-45
2023/07/25 18:14:31;;;;;;;;;;;18.20;99.90;;;;;;12511710;28;19921;-45
2023/07/25 18:20:36;;;;;;;;;;;17.90;99.90;;;;;;12507889;28;19982;-45
2023/07/25 18:26:39;;;;;;;;;;;17.60;99.90;;;;;;12527470;28;19928;-45
2023/07/25 18:32:41;;;;;;;;;;;17.30;99.90;;;;;;12505261;28;19955;-45
2023/07/25 18:38:44;;;;;;;;;;;17.10;99.90;;;;;;12519542;28;19977;-45
2023/07/25 18:44:47;;;;;;;;;;;17.00;99.90;;;;;;12514803;28;19994;-45
2023/07/25 18:50:49;;;;;;;;;;;16.90;99.90;;;;;;12508856;28;19931;-45
2023/07/25 18:56:52;;;;;;;;;;;16.60;99.90;;;;;;12500132;28;19975;-42
2023/07/25 19:02:56;;;;;;;;;;;16.40;99.90;;;;;;12517332;28;19932;-42
2023/07/25 19:08:59;;;;;;;;;;;16.30;99.90;;;;;;12523746;28;19956;-42
2023/07/25 19:15:02;;;;;;;;;;;16.30;99.90;;;;;;12521069;28;20300;-42
2023/07/25 19:21:05;;;;;;;;;;;16.20;99.90;;;;;;12517224;28;19924;-42
2023/07/25 19:27:08;;;;;;;;;;;16.00;99.90;;;;;;12511564;28;19928;-42
2023/07/25 19:33:11;;;;;;;;;;;15.90;99.90;;;;;;12507776;28;19979;-42
2023/07/25 19:39:14;;;;;;;;;;;15.70;99.90;;;;;;12510907;28;20305;-42
2023/07/25 19:45:16;;;;;;;;;;;15.80;99.90;;;;;;12489389;28;20270;-42
2023/07/25 19:51:18;;;;;;;;;;;15.70;99.90;;;;;;12505375;28;20377;-42
2023/07/25 19:57:21;;;;;;;;;;;15.60;99.90;;;;;;12488242;28;19921;-42
2023/07/25 20:03:23;;;;;;;;;;;15.60;99.90;;;;;;12515572;28;20420;-42
2023/07/25 20:09:27;;;;;;;;;;;15.40;99.90;;;;;;12513895;28;19932;-42
2023/07/25 20:15:30;;;;;;;;;;;15.40;99.90;;;;;;12505222;28;20025;-42
2023/07/25 20:21:33;;;;;;;;;;;15.30;99.90;;;;;;12516780;28;20421;-42
2023/07/25 20:27:35;;;;;;;;;;;15.50;99.90;;;;;;12510256;28;20300;-42
2023/07/25 20:33:38;;;;;;;;;;;15.70;99.90;;;;;;12498783;28;20397;-42
2023/07/25 20:39:41;;;;;;;;;;;15.60;99.90;;;;;;12498106;28;19974;-42
2023/07/25 20:45:43;;;;;;;;;;;15.20;99.90;;;;;;12497863;28;19925;-42
2023/07/25 20:51:45;;;;;;;;;;;15.10;99.90;;;;;;12497487;28;20277;-42
2023/07/25 20:57:48;;;;;;;;;;;15.00;99.90;;;;;;12477078;28;19932;-42
2023/07/25 21:03:51;;;;;;;;;;;15.30;99.90;;;;;;12518623;28;19973;-42
2023/07/25 21:09:53;;;;;;;;;;;15.10;99.90;;;;;;12505676;28;20250;-42
2023/07/25 21:15:56;;;;;;;;;;;15.00;99.90;;;;;;12507218;28;19920;-42
2023/07/25 21:21:59;;;;;;;;;;;15.10;99.90;;;;;;12513227;28;19921;-42
2023/07/25 21:28:02;;;;;;;;;;;15.20;99.90;;;;;;12514963;28;20404;-42
2023/07/25 21:34:06;;;;;;;;;;;15.20;99.90;;;;;;12510706;28;20292;-42
2023/07/25 21:40:09;;;;;;;;;;;14.70;99.90;;;;;;12504575;28;19921;-42
2023/07/25 21:46:12;;;;;;;;;;;14.30;99.90;;;;;;12515994;28;20024;-41
2023/07/25 21:52:15;;;;;;;;;;;14.20;99.90;;;;;;12508510;28;20307;-41
2023/07/25 21:58:18;;;;;;;;;;;14.20;99.90;;;;;;12495189;28;19921;-42
2023/07/25 22:04:21;;;;;;;;;;;14.70;99.90;;;;;;12529327;28;19974;-41
2023/07/25 22:10:23;;;;;;;;;;;14.80;99.90;;;;;;12505531;28;19921;-42
2023/07/25 22:16:26;;;;;;;;;;;14.50;99.90;;;;;;12525215;28;19969;-42
2023/07/25 22:22:29;;;;;;;;;;;14.60;99.90;;;;;;12504481;28;20369;-42
2023/07/25 22:28:31;;;;;;;;;;;14.60;99.90;;;;;;12522878;28;19982;-42
2023/07/25 22:34:33;;;;;;;;;;;14.50;99.90;;;;;;12521735;28;20381;-42
2023/07/25 22:40:35;;;;;;;;;;;14.40;99.90;;;;;;12507548;28;19940;-41
2023/07/25 22:46:38;;;;;;;;;;;14.10;99.90;;;;;;12529976;28;19921;-42
2023/07/25 22:52:43;;;;;;;;;;;13.90;99.90;;;;;;12500352;28;20785;-41
2023/07/25 22:58:45;;;;;;;;;;;14.10;99.90;;;;;;12508221;28;19924;-42
2023/07/25 23:04:48;;;;;;;;;;;14.20;99.90;;;;;;12524639;28;19924;-42
2023/07/25 23:10:54;;;;;;;;;;;14.20;99.90;;;;;;12505190;28;19948;-42
2023/07/25 23:16:58;;;;;;;;;;;14.20;99.90;;;;;;12526485;28;19943;-42
2023/07/25 23:23:00;;;;;;;;;;;13.90;99.90;;;;;;12510686;28;20036;-42
2023/07/25 23:29:03;;;;;;;;;;;13.80;99.90;;;;;;12496931;28;19921;-42
2023/07/25 23:35:05;;;;;;;;;;;13.80;99.90;;;;;;12492867;28;19998;-42
2023/07/25 23:41:08;;;;;;;;;;;13.80;99.90;;;;;;12504100;28;19928;-41
2023/07/25 23:47:11;;;;;;;;;;;13.50;99.90;;;;;;12530604;28;19982;-42
2023/07/25 23:53:14;;;;;;;;;;;13.50;99.90;;;;;;12507121;28;20373;-42
2023/07/25 23:59:17;;;;;;;;;;;13.40;99.90;;;;;;12524490;28;19924;-41
